Pagina principală
METAR-TAF:

METAR-TAF

Aeroporturi :

Tekamah Municipal Airport

Tekamah, Nebraska, Statele Unite ale Americii

Latitudine: 41-46-01N, longitudine: 096-10-40W, elevație: 313 m

Observații meteo curente

Raportul a fost făcut în urmă cu 1 oră și 1 de minute, la 01:54 UTC
Vânt 14 kt de la Nord-vest
Temperatură 15°C
Umiditate 77%
Presiune 1006 hPa
Vizibilitate: 16.1 km
Cer senin

METAR: KTQE 220154Z AUTO 31014KT 10SM CLR 15/11 A2971 RMK AO2 PK WND 32029/0100 SLP054 T01500106

Ora: 21:55 (02:55 UTC)


TAF: lipsă

Observații și prognoze meteo pentru peste 4.000 de aeroporturi (rapoarte METAR și TAF).

Stațiile disponibile sunt reprezentate pe hartă prin puncte galbene și roșii.

Țineți indicatorul mouse-ului pe punctul dorit pentru a vedea denumirea stației.

Apoi, faceți clic pentru a vedea observațiile și prognozele meteorologice.

Pentru a schimba harta: Pentru mărire, faceți clic pe butoanele verzi cu cruce neagră; pentru micșorare, pe butonul verde cu o liniuță; pentru hărți învecinate, pe săgețile verzi.


METAR-TAF: